Thursday, September 1, 2016
05:39 UTC
  |  Log In   |  Register Free
Airport Search:

Carmi Municipal Airport
(KCUL)

Carmi Municipal Airport Diagram
No Airport Diagram Available

FAA data valid effective Jul 21 2016 - Sep 15 2016 (unless otherwise noted).

 
 
 
 
 
 
 
 
 
 
 
 
 
 
Current Aviation Weather for KCUL

Weather Summary


The most recent METAR observation for CUL was updated at: 12:55 UTC
METAR for CUL is not available. Closest METAR is for
METAR

METAR KCUL 010515Z 01006KT 10SM CLR 23/23 A3000 RMK AO2 T02290227

METAR KCUL 010455Z 36004KT 7SM CLR 23/23 A3000 RMK AO2 T02300228

METAR KCUL 010435Z 35006KT 7SM CLR 23/23 A3000 RMK AO2 T02300230

METAR KCUL 010415Z 34005KT 5SM BR CLR 23/23 A3000 RMK AO2 T02270227

METAR KCUL 010355Z 32003KT 5SM BR CLR 23/23 A3000 RMK AO2 T02250225

METAR KCUL 010335Z 30003KT 5SM BR CLR 23/23 A2999 RMK AO2 T02250225

METAR KCUL 010315Z 31003KT 5SM BR CLR 22/22 A2999 RMK AO2 T02230223

METAR KCUL 010255Z 31003KT 5SM BR CLR 22/22 A2999 RMK AO2 T02220222

METAR KEHR 010515Z 36004KT 10SM FEW043 24/21 A2998 RMK AO1

METAR KEVV 010454Z 02010KT 10SM CLR 24/21 A3000 RMK AO2 SLP153 T02440211

METAR KFWC 010515Z 01007KT 21/20 A3002 RMK AO1 T02120195 PWINO

TAF for CUL is not available.
TAF

KEVV - TAF KEVV 010520Z 0106/0206 35005KT P6SM SCT035 BKN100

KEVV - TEMPO 0106/0109 BKN035

KEVV - FM011400 02007KT P6SM SCT250

KEVV - FM011700 02009KT P6SM SCT030

KEVV - FM020000 01005KT P6SM SKC =

GlobalAir.com is loading additional information.
 Current Weather at CUL
73.0 F° (22.5 C°)

Northwest winds at 3.5 mph
Pressure:
30.00 in
Humidity:
100%
Wind:
Northwest at 3.5 mph
Dew Point:
72.5 F° (22.5 C°)
Visibility:
5.00 mi
CUL NOAA Radar




Find All Airport Services Find A Hotel Find A Rental Car Find A Golf Course Find A Restaurant $100 Hamburger



Airport Weather Forecast for KCUL

Translated METAR for KCUL (0515 UTC)
METAR:
KCUL 010515Z AUTO Carmi Municipal, Carmi, IL (KCUL). Sep 1, 0515Z, Automated. Wind from 010° at 6 knots, 10 statute miles visibility, Clear Skies, Temperature 23°C, Dewpoint 23°C, Altimeter is 30.00. Remarks: automated station with precipitation discriminator hourly temp 22.9°C dewpoint 22.7°C
Conditions at:
KCUL (Carmi Muni, IL) observed 0515 UTC 01 September 2016
Temperature:
73.0 F° (22.5 C°)
Dewpoint:
not reported - refer to area weather report
Pressure:
30.00 Hg
Winds:
not reported
Visibility:
5.00
Ceiling:
at least 12,000 feet AGL
Clouds:
not reported - refer to area weather report
Remarks:
site is un-manned

Translated TAF for TAF for CUL is not available. Refer to local area forecast.
FBO's on the Field
FBO Company Facility Photos Services Transportation Aviation Fuel Prices: Prices include tax
Catering Weather Repair Courtesy Rental Type 100LL JetA JetA+ MOGAS 8087
 
Carmi Municipal Airport

This FBO has not yet been rated
FS:Shell
Last Updated: Aug-08
Login to update fuel prices
SS:
Contact Carmi Municipal AirportMore FBO Information
 
Add another FBO Facility Photos Catering Weather Repair Courtesy Rental Type 100LL JetA JetA+ MOGAS 8087
Services Transportation Aviation Fuel Prices: Prices include tax


model-print
model-print
model-print
model-print